Time;durP1;ratioP1;P1;durP2;ratioP2;P2;SDS_P1;SDS_P2;PMS_P1;PMS_P2;Temp;Humidity;BMP_temperature;BMP_pressure;BME280_temperature;BME280_humidity;BME280_pressure;Samples;Min_cycle;Max_cycle;Signal;HPM_P1;HPM_P2
2022/06/09 00:00:27;;;;;;;4.43;2.85;;;15.00;99.90;;;;;;5032500;28;20037;-74
2022/06/09 00:02:57;;;;;;;3.38;2.75;;;14.90;99.90;;;;;;5032507;28;20394;-74
2022/06/09 00:05:24;;;;;;;4.97;2.33;;;15.00;99.90;;;;;;5034932;28;20040;-74
2022/06/09 00:07:53;;;;;;;3.92;2.08;;;15.00;99.90;;;;;;5034694;28;20454;-74
2022/06/09 00:10:24;;;;;;;5.78;2.83;;;15.00;99.90;;;;;;5047036;28;20045;-76
2022/06/09 00:12:50;;;;;;;5.38;2.30;;;14.90;99.90;;;;;;5049110;28;20064;-74
2022/06/09 00:15:16;;;;;;;3.63;2.50;;;15.00;99.90;;;;;;5043259;28;20037;-74
2022/06/09 00:17:43;;;;;;;3.40;2.40;;;15.00;99.90;;;;;;5033962;28;20052;-73
2022/06/09 00:20:11;;;;;;;3.92;2.80;;;15.00;99.90;;;;;;5048737;28;20040;-73
2022/06/09 00:22:37;;;;;;;4.03;2.40;;;15.00;99.90;;;;;;5039461;28;20040;-74
2022/06/09 00:25:04;;;;;;;5.32;2.85;;;15.00;99.90;;;;;;5042357;28;20029;-75
2022/06/09 00:27:30;;;;;;;7.00;2.95;;;15.00;99.90;;;;;;5031515;28;20036;-73
2022/06/09 00:29:56;;;;;;;3.88;2.90;;;14.90;99.90;;;;;;5039682;28;20170;-73
2022/06/09 00:32:22;;;;;;;5.82;2.88;;;14.90;99.90;;;;;;5054419;28;20041;-73
2022/06/09 00:34:48;;;;;;;4.43;3.00;;;15.00;99.90;;;;;;5042549;28;20029;-73
2022/06/09 00:37:15;;;;;;;6.38;3.17;;;14.90;99.90;;;;;;5043655;28;20041;-74
2022/06/09 00:39:41;;;;;;;4.60;3.08;;;14.90;99.90;;;;;;5041621;28;20033;-73
2022/06/09 00:42:09;;;;;;;4.70;3.05;;;14.80;99.90;;;;;;5031666;28;20052;-74
2022/06/09 00:44:37;;;;;;;4.55;3.60;;;14.70;99.90;;;;;;5031450;28;20041;-74
2022/06/09 00:47:06;;;;;;;6.75;3.33;;;14.60;99.90;;;;;;5031814;28;20040;-73
2022/06/09 00:49:47;;;;;;;4.93;3.45;;;14.60;99.90;;;;;;5031315;28;20041;-74
2022/06/09 00:52:17;;;;;;;5.47;3.50;;;14.50;99.90;;;;;;5040765;28;20048;-73
2022/06/09 00:54:47;;;;;;;4.90;3.30;;;14.50;99.90;;;;;;5040688;28;20486;-74
2022/06/09 00:57:20;;;;;;;5.43;3.72;;;14.40;99.90;;;;;;5035363;28;20036;-73
2022/06/09 00:59:50;;;;;;;8.43;3.88;;;14.30;99.90;;;;;;5043043;28;20033;-73
2022/06/09 01:02:19;;;;;;;6.45;4.10;;;14.30;99.90;;;;;;5040444;28;20037;-74
2022/06/09 01:04:49;;;;;;;8.13;3.50;;;14.20;99.90;;;;;;5033311;28;20380;-74
2022/06/09 01:07:21;;;;;;;7.90;4.38;;;14.10;99.90;;;;;;5042750;28;20040;-74
2022/06/09 01:09:47;;;;;;;6.07;3.97;;;14.10;99.90;;;;;;5034725;28;20040;-74
2022/06/09 01:12:41;;;;;;;7.65;4.22;;;14.00;99.90;;;;;;5044568;28;20467;-74
2022/06/09 01:15:14;;;;;;;6.50;3.53;;;13.90;99.90;;;;;;5032220;28;20046;-74
2022/06/09 01:17:51;;;;;;;5.53;3.63;;;13.90;99.90;;;;;;5034204;28;20471;-74
2022/06/09 01:20:39;;;;;;;7.88;3.55;;;13.80;99.90;;;;;;5035247;28;20045;-74
2022/06/09 01:23:17;;;;;;;5.10;3.10;;;13.80;99.90;;;;;;5034541;28;20040;-74
2022/06/09 01:26:11;;;;;;;6.70;2.78;;;13.70;99.90;;;;;;5033986;28;20056;-74
2022/06/09 01:29:04;;;;;;;8.10;3.90;;;13.70;99.90;;;;;;5033259;28;20037;-75
2022/06/09 01:31:41;;;;;;;8.30;4.30;;;13.80;99.90;;;;;;5033917;28;20471;-74
2022/06/09 01:34:17;;;;;;;10.90;4.05;;;13.80;99.90;;;;;;5034704;28;20033;-74
2022/06/09 01:36:49;;;;;;;6.50;3.90;;;13.70;99.90;;;;;;5034145;28;20360;-74
2022/06/09 01:39:15;;;;;;;5.85;3.72;;;13.60;99.90;;;;;;5034255;28;20038;-74
2022/06/09 01:41:47;;;;;;;4.65;3.33;;;13.60;99.90;;;;;;5034224;28;20037;-74
2022/06/09 01:44:16;;;;;;;4.90;3.63;;;13.50;99.90;;;;;;5034134;28;20041;-73
2022/06/09 01:46:44;;;;;;;6.93;4.35;;;13.50;99.90;;;;;;5047638;28;20045;-74
2022/06/09 01:49:16;;;;;;;6.60;3.88;;;13.60;99.90;;;;;;5034188;28;20034;-74
2022/06/09 01:51:45;;;;;;;7.75;3.50;;;13.60;99.90;;;;;;5043498;28;20037;-74
2022/06/09 01:54:34;;;;;;;7.68;2.88;;;13.70;99.90;;;;;;5034142;28;20048;-74
2022/06/09 01:57:07;;;;;;;8.32;3.13;;;13.80;99.90;;;;;;5032797;28;20048;-74
2022/06/09 01:59:39;;;;;;;5.75;1.95;;;14.00;99.90;;;;;;5033868;28;20045;-74
2022/06/09 02:02:37;;;;;;;8.30;2.15;;;14.10;99.90;;;;;;5032538;28;20068;-73
2022/06/09 02:05:12;;;;;;;6.13;2.72;;;14.10;99.90;;;;;;5028780;28;20041;-76
2022/06/09 02:07:40;;;;;;;2.42;1.55;;;14.20;99.90;;;;;;5041604;28;20509;-75
2022/06/09 02:10:21;;;;;;;3.63;1.75;;;14.10;99.90;;;;;;5033976;28;20029;-73
2022/06/09 02:12:50;;;;;;;4.85;2.50;;;14.00;99.90;;;;;;5033687;28;20052;-73
2022/06/09 02:15:28;;;;;;;4.95;2.53;;;14.00;99.90;;;;;;5048703;28;20580;-74
2022/06/09 02:17:55;;;;;;;6.13;2.60;;;14.00;99.90;;;;;;5048529;28;20048;-74
2022/06/09 02:20:23;;;;;;;6.15;3.13;;;14.00;99.90;;;;;;5033842;28;20037;-74
2022/06/09 02:22:50;;;;;;;7.30;4.22;;;14.00;99.90;;;;;;5037263;28;20036;-74
2022/06/09 02:25:17;;;;;;;4.97;2.50;;;14.00;99.90;;;;;;5045842;28;20056;-74
2022/06/09 02:27:43;;;;;;;7.47;3.08;;;14.10;99.90;;;;;;5036261;28;20053;-72
2022/06/09 02:30:11;;;;;;;5.82;2.83;;;14.10;99.90;;;;;;5044359;28;20040;-73
2022/06/09 02:32:37;;;;;;;8.65;3.35;;;14.10;99.90;;;;;;5040153;28;20025;-73
2022/06/09 02:35:03;;;;;;;9.35;3.55;;;14.10;99.90;;;;;;5035551;28;20041;-72
2022/06/09 02:37:30;;;;;;;6.07;2.78;;;14.20;99.90;;;;;;5049944;28;20045;-74
2022/06/09 02:39:56;;;;;;;8.15;3.15;;;14.20;99.90;;;;;;5033213;28;20025;-73
2022/06/09 02:42:22;;;;;;;7.85;2.90;;;14.20;99.90;;;;;;5033324;28;20034;-74
2022/06/09 02:44:48;;;;;;;8.35;2.90;;;14.20;99.90;;;;;;5043059;28;20390;-72
2022/06/09 02:47:14;;;;;;;10.73;4.15;;;14.20;99.90;;;;;;5033354;28;20398;-72
2022/06/09 02:49:41;;;;;;;9.73;3.33;;;14.20;99.90;;;;;;5032463;28;20041;-72
2022/06/09 02:52:07;;;;;;;5.50;2.20;;;14.30;99.90;;;;;;5031569;28;20037;-72
2022/06/09 02:54:34;;;;;;;4.78;2.10;;;14.30;99.90;;;;;;5034444;28;20029;-72
2022/06/09 02:57:00;;;;;;;6.93;2.10;;;14.30;99.90;;;;;;5038929;28;20041;-72
2022/06/09 02:59:26;;;;;;;5.63;1.90;;;14.30;99.90;;;;;;5032654;28;20040;-73
2022/06/09 03:01:52;;;;;;;4.82;1.77;;;14.30;99.90;;;;;;5032240;28;20044;-73
2022/06/09 03:04:18;;;;;;;5.07;1.88;;;14.30;99.90;;;;;;5041545;28;20033;-72
2022/06/09 03:06:44;;;;;;;6.13;1.90;;;14.30;99.90;;;;;;5039154;28;20070;-72
2022/06/09 03:09:11;;;;;;;3.20;1.45;;;14.20;99.90;;;;;;5032463;28;20360;-73
2022/06/09 03:11:37;;;;;;;3.90;1.88;;;14.20;99.90;;;;;;5037939;28;20021;-73
2022/06/09 03:14:03;;;;;;;4.72;2.10;;;14.20;99.90;;;;;;5035443;28;20044;-73
2022/06/09 03:16:30;;;;;;;5.70;1.50;;;14.20;99.90;;;;;;5032467;28;20030;-72
2022/06/09 03:18:56;;;;;;;4.82;2.65;;;14.30;99.90;;;;;;5055382;28;20041;-72
2022/06/09 03:21:23;;;;;;;3.55;1.58;;;14.20;99.90;;;;;;5045519;28;20081;-72
2022/06/09 03:23:51;;;;;;;3.45;1.52;;;14.30;99.90;;;;;;5032315;28;20470;-73
2022/06/09 03:26:17;;;;;;;3.83;1.88;;;14.20;99.90;;;;;;5039460;28;20088;-73
2022/06/09 03:28:44;;;;;;;5.40;2.53;;;14.20;99.90;;;;;;5038551;28;20454;-73
2022/06/09 03:31:10;;;;;;;7.68;2.88;;;14.20;99.90;;;;;;5032015;28;20040;-74
2022/06/09 03:33:37;;;;;;;6.13;2.35;;;14.20;99.90;;;;;;5030552;28;20040;-73
2022/06/09 03:36:04;;;;;;;4.18;2.28;;;14.20;99.90;;;;;;5032186;28;20068;-73
2022/06/09 03:38:30;;;;;;;7.20;2.42;;;14.20;99.90;;;;;;5032007;28;20402;-73
2022/06/09 03:40:56;;;;;;;5.15;2.30;;;14.20;99.90;;;;;;5032484;28;20506;-73
2022/06/09 03:43:23;;;;;;;3.90;2.28;;;14.20;99.90;;;;;;5032037;28;20049;-74
2022/06/09 03:45:49;;;;;;;7.13;1.75;;;14.20;99.90;;;;;;5031811;28;20029;-72
2022/06/09 03:48:15;;;;;;;4.10;1.67;;;14.10;99.90;;;;;;5032300;28;20045;-72
2022/06/09 03:50:41;;;;;;;7.28;2.08;;;14.20;99.90;;;;;;5031820;28;20036;-72
2022/06/09 03:53:07;;;;;;;4.68;1.88;;;14.20;99.90;;;;;;5047526;28;20060;-72
2022/06/09 03:55:34;;;;;;;4.20;1.92;;;14.30;99.90;;;;;;5031966;28;20056;-73
2022/06/09 03:58:00;;;;;;;4.28;1.67;;;14.30;99.90;;;;;;5032636;28;20041;-72
2022/06/09 04:00:29;;;;;;;7.32;2.13;;;14.30;99.90;;;;;;5031746;28;20044;-72
2022/06/09 04:02:55;;;;;;;4.90;2.10;;;14.40;99.90;;;;;;5031634;28;20045;-72
2022/06/09 04:05:22;;;;;;;3.95;1.67;;;14.50;99.90;;;;;;5032091;28;20025;-73
2022/06/09 04:07:49;;;;;;;6.90;1.98;;;14.40;99.90;;;;;;5031794;28;20455;-73
2022/06/09 04:10:26;;;;;;;5.13;1.73;;;14.50;99.90;;;;;;5032137;28;20041;-72
2022/06/09 04:12:53;;;;;;;5.55;1.42;;;14.50;99.90;;;;;;5045332;28;20050;-73
2022/06/09 04:15:20;;;;;;;6.22;1.52;;;14.50;99.90;;;;;;5037749;28;20041;-73
2022/06/09 04:17:47;;;;;;;3.22;2.25;;;14.60;99.90;;;;;;5037046;28;20033;-73
2022/06/09 04:20:16;;;;;;;5.07;1.50;;;15.10;99.90;;;;;;5046592;28;20037;-73
2022/06/09 04:22:43;;;;;;;2.30;1.07;;;15.90;99.90;;;;;;5031419;28;20033;-73
2022/06/09 04:25:10;;;;;;;2.38;1.20;;;16.60;99.90;;;;;;5040719;28;20279;-73
2022/06/09 04:27:36;;;;;;;7.90;1.60;;;17.20;99.90;;;;;;5041549;28;20041;-74
2022/06/09 04:30:02;;;;;;;2.40;1.20;;;17.70;99.90;;;;;;5051237;28;20049;-74
2022/06/09 04:32:29;;;;;;;5.47;1.42;;;18.00;99.90;;;;;;5035677;28;20104;-73
2022/06/09 04:34:55;;;;;;;2.35;1.10;;;17.60;99.90;;;;;;5044107;28;20025;-73
2022/06/09 04:37:59;;;;;;;4.55;1.33;;;18.20;99.90;;;;;;5035287;28;20033;-73
2022/06/09 04:40:09;;;;;;;3.88;1.40;;;18.30;99.90;;;;;;5035567;28;20422;-72
2022/06/09 04:42:35;;;;;;;4.30;1.60;;;18.10;99.90;;;;;;5035273;28;20044;-72
2022/06/09 04:45:02;;;;;;;2.50;1.33;;;18.30;99.90;;;;;;5035253;28;20037;-72
2022/06/09 04:47:28;;;;;;;4.63;1.70;;;18.30;99.90;;;;;;5035161;28;20044;-72
2022/06/09 04:49:54;;;;;;;6.22;1.20;;;19.00;99.90;;;;;;5034738;28;20040;-72
2022/06/09 04:52:20;;;;;;;3.72;1.25;;;19.40;99.90;;;;;;5035189;28;20044;-72
2022/06/09 04:54:46;;;;;;;3.55;1.90;;;18.60;99.90;;;;;;5042825;28;20033;-72
2022/06/09 04:57:12;;;;;;;6.05;2.47;;;18.70;99.90;;;;;;5047662;28;20045;-72
2022/06/09 04:59:38;;;;;;;3.15;1.05;;;18.40;99.90;;;;;;5034568;28;20029;-73
2022/06/09 05:02:05;;;;;;;8.07;1.67;;;18.20;99.90;;;;;;5043345;28;20040;-72
2022/06/09 05:04:31;;;;;;;4.65;1.80;;;18.20;99.90;;;;;;5049114;28;20041;-72
2022/06/09 05:06:57;;;;;;;4.07;1.42;;;18.70;99.70;;;;;;5035223;28;20056;-72
2022/06/09 05:09:24;;;;;;;3.47;1.90;;;18.50;99.90;;;;;;5036721;28;20040;-73
2022/06/09 05:11:50;;;;;;;5.85;1.73;;;17.70;99.90;;;;;;5047866;28;20439;-72
2022/06/09 05:14:16;;;;;;;4.80;2.33;;;18.40;99.90;;;;;;5048927;28;20080;-72
2022/06/09 05:16:42;;;;;;;4.82;1.63;;;19.10;98.60;;;;;;5038350;28;20037;-73
2022/06/09 05:19:08;;;;;;;2.85;1.23;;;18.70;99.90;;;;;;5049341;28;20037;-73
2022/06/09 05:21:34;;;;;;;2.78;1.30;;;18.20;99.30;;;;;;5039843;28;20045;-72
2022/06/09 05:24:01;;;;;;;4.80;1.70;;;18.20;99.90;;;;;;5034647;28;20029;-71
2022/06/09 05:26:27;;;;;;;4.63;1.48;;;18.40;98.50;;;;;;5034603;28;20033;-72
2022/06/09 05:28:54;;;;;;;3.90;1.25;;;17.90;98.90;;;;;;5034261;28;20040;-73
2022/06/09 05:31:20;;;;;;;7.78;1.60;;;18.20;99.90;;;;;;5033397;28;20387;-71
2022/06/09 05:33:46;;;;;;;4.60;1.88;;;18.50;98.80;;;;;;5036182;28;20707;-72
2022/06/09 05:36:13;;;;;;;6.35;1.20;;;19.10;98.30;;;;;;5041513;28;20395;-73
2022/06/09 05:46:55;;;;;;;3.67;1.45;;;19.00;95.10;;;;;;5043249;28;20025;-71
2022/06/09 05:49:21;;;;;;;3.38;1.00;;;18.80;95.60;;;;;;5040624;28;20041;-73
2022/06/09 05:51:52;;;;;;;4.72;1.23;;;18.60;97.70;;;;;;5043030;28;20049;-71
2022/06/09 05:54:19;;;;;;;6.80;1.55;;;18.50;96.50;;;;;;5033795;28;20033;-71
2022/06/09 05:56:46;;;;;;;4.00;0.88;;;18.20;96.60;;;;;;5033784;28;20038;-71
2022/06/09 05:59:12;;;;;;;5.18;1.25;;;17.00;98.60;;;;;;5034115;28;20481;-73
2022/06/09 06:01:38;;;;;;;3.60;1.23;;;17.10;99.90;;;;;;5046785;28;20033;-72
2022/06/09 06:04:07;;;;;;;4.80;1.58;;;17.10;99.90;;;;;;5034019;28;20028;-72
2022/06/09 06:06:33;;;;;;;4.25;1.27;;;17.40;99.90;;;;;;5033910;28;20033;-72
2022/06/09 06:09:09;;;;;;;6.97;1.58;;;16.70;99.90;;;;;;5032714;28;20034;-72
2022/06/09 06:11:37;;;;;;;8.75;1.70;;;16.50;99.90;;;;;;5033249;28;20041;-73
2022/06/09 06:14:04;;;;;;;4.05;1.48;;;16.50;99.90;;;;;;5033737;28;20048;-71
2022/06/09 06:16:30;;;;;;;5.63;1.60;;;16.20;99.90;;;;;;5037152;28;20045;-73
2022/06/09 06:18:57;;;;;;;6.75;2.15;;;16.00;99.90;;;;;;5035905;28;20037;-72
2022/06/09 06:21:23;;;;;;;10.23;2.00;;;15.90;99.90;;;;;;5033333;28;20037;-72
2022/06/09 06:23:50;;;;;;;4.15;1.05;;;15.80;99.90;;;;;;5032583;28;20052;-72
2022/06/09 06:26:17;;;;;;;6.20;1.05;;;15.70;99.90;;;;;;5033361;28;20050;-73
2022/06/09 06:28:44;;;;;;;5.97;1.50;;;15.60;99.90;;;;;;5043596;28;20067;-73
2022/06/09 06:31:10;;;;;;;2.28;0.73;;;15.70;99.90;;;;;;5033755;28;20053;-74
2022/06/09 06:33:37;;;;;;;8.10;1.35;;;15.70;99.90;;;;;;5039377;28;20040;-73
2022/06/09 06:36:03;;;;;;;4.72;0.98;;;15.60;99.90;;;;;;5038197;28;20136;-72
2022/06/09 06:38:30;;;;;;;3.85;1.05;;;15.60;99.90;;;;;;5033046;28;20386;-72
2022/06/09 06:40:56;;;;;;;3.55;1.05;;;15.70;99.90;;;;;;5031563;28;20033;-74
2022/06/09 06:43:23;;;;;;;5.68;1.10;;;15.60;99.90;;;;;;5033127;28;20041;-73
2022/06/09 06:45:49;;;;;;;5.43;2.10;;;15.60;99.90;;;;;;5033176;28;20029;-72
2022/06/09 06:48:16;;;;;;;6.55;1.90;;;15.60;99.90;;;;;;5033166;28;20090;-73
2022/06/09 06:50:42;;;;;;;8.43;1.85;;;15.60;99.90;;;;;;5032533;28;20029;-73
2022/06/09 06:53:12;;;;;;;5.30;1.20;;;15.60;99.90;;;;;;5041965;28;20033;-73
2022/06/09 06:55:39;;;;;;;8.68;1.45;;;15.40;99.90;;;;;;5033029;28;20029;-73
2022/06/09 06:58:06;;;;;;;3.20;1.08;;;15.40;99.90;;;;;;5040525;28;20033;-71
2022/06/09 07:00:34;;;;;;;4.90;1.08;;;15.50;99.90;;;;;;5033073;28;20478;-71
2022/06/09 07:03:01;;;;;;;10.70;1.95;;;15.50;99.90;;;;;;5033206;28;20037;-71
2022/06/09 07:05:27;;;;;;;4.68;1.20;;;15.50;99.90;;;;;;5038076;28;20033;-72
2022/06/09 07:07:54;;;;;;;8.48;1.58;;;15.50;99.90;;;;;;5037519;28;20486;-72
2022/06/09 07:10:20;;;;;;;11.27;2.05;;;15.40;99.90;;;;;;5040711;28;20033;-72
2022/06/09 07:12:46;;;;;;;6.18;1.08;;;15.40;99.90;;;;;;5039268;28;20483;-72
2022/06/09 07:15:14;;;;;;;5.93;1.00;;;15.40;99.90;;;;;;5045958;28;20037;-71
2022/06/09 07:17:40;;;;;;;3.83;1.20;;;15.50;99.90;;;;;;5041902;28;20049;-72
2022/06/09 07:20:09;;;;;;;3.00;0.90;;;15.60;99.90;;;;;;5047368;28;20044;-72
2022/06/09 07:22:35;;;;;;;6.63;1.63;;;15.70;99.90;;;;;;5032561;28;20379;-71
2022/06/09 07:25:03;;;;;;;5.72;1.50;;;15.70;99.90;;;;;;5032247;28;20034;-72
2022/06/09 07:27:29;;;;;;;7.32;1.50;;;16.00;99.90;;;;;;5015180;28;20036;-71
2022/06/09 07:29:55;;;;;;;5.32;1.63;;;16.10;99.90;;;;;;5031969;28;20418;-72
2022/06/09 07:32:22;;;;;;;6.18;1.35;;;16.10;99.90;;;;;;5032290;28;20037;-71
2022/06/09 07:34:48;;;;;;;9.02;2.38;;;16.00;99.90;;;;;;5032347;28;20033;-72
2022/06/09 07:37:16;;;;;;;4.28;1.25;;;15.90;99.90;;;;;;5031412;28;20497;-72
2022/06/09 07:39:43;;;;;;;5.88;1.23;;;15.80;99.90;;;;;;5031731;28;20033;-73
2022/06/09 07:42:09;;;;;;;5.65;2.22;;;16.10;99.90;;;;;;5051870;28;20037;-72
2022/06/09 07:44:36;;;;;;;4.68;1.73;;;16.00;99.90;;;;;;5032571;28;20029;-71
2022/06/09 07:47:05;;;;;;;6.18;1.73;;;15.80;99.90;;;;;;5032538;28;20347;-72
2022/06/09 07:49:32;;;;;;;4.60;1.35;;;15.50;99.90;;;;;;5031559;28;20052;-72
2022/06/09 07:51:58;;;;;;;5.50;1.65;;;15.40;99.90;;;;;;5039129;28;20040;-72
2022/06/09 07:54:24;;;;;;;6.40;1.80;;;15.60;99.90;;;;;;5032548;28;20029;-72
2022/06/09 07:56:50;;;;;;;5.90;1.73;;;15.90;99.90;;;;;;5032053;28;20072;-72
2022/06/09 07:59:17;;;;;;;5.68;2.13;;;15.80;99.90;;;;;;5040576;28;20044;-71
2022/06/09 08:01:46;;;;;;;6.13;0.93;;;16.00;99.90;;;;;;5034194;28;20033;-72
2022/06/09 08:04:12;;;;;;;7.70;1.20;;;16.10;99.90;;;;;;5036446;28;20360;-71
2022/06/09 08:06:39;;;;;;;5.22;1.80;;;16.20;99.90;;;;;;5044196;28;20029;-74
2022/06/09 08:09:05;;;;;;;8.57;2.28;;;16.50;99.90;;;;;;5048942;28;20083;-72
2022/06/09 08:11:34;;;;;;;8.35;2.25;;;16.90;98.50;;;;;;5041617;28;20043;-72
2022/06/09 08:14:02;;;;;;;5.32;2.42;;;16.90;99.60;;;;;;5039686;28;20029;-71
2022/06/09 08:16:29;;;;;;;5.97;2.30;;;17.20;99.00;;;;;;5035981;28;20029;-72
2022/06/09 08:18:56;;;;;;;5.97;2.22;;;17.00;99.40;;;;;;5035744;28;20037;-72
2022/06/09 08:21:23;;;;;;;6.07;1.90;;;17.00;98.90;;;;;;5035605;28;20033;-73
2022/06/09 08:23:49;;;;;;;3.65;1.20;;;17.00;99.40;;;;;;5035813;28;20028;-72
2022/06/09 08:26:16;;;;;;;7.20;2.05;;;17.40;98.60;;;;;;5034447;28;20029;-72
2022/06/09 08:28:42;;;;;;;8.07;1.95;;;17.70;98.20;;;;;;5035367;28;20037;-73
2022/06/09 08:31:09;;;;;;;7.90;2.08;;;17.50;97.40;;;;;;5035736;28;20034;-73
2022/06/09 08:33:35;;;;;;;6.32;1.92;;;17.00;97.70;;;;;;5035673;28;20040;-72
2022/06/09 08:36:03;;;;;;;8.63;1.90;;;16.70;99.80;;;;;;5035066;28;20036;-72
2022/06/09 08:38:29;;;;;;;7.80;1.30;;;16.60;99.70;;;;;;5035875;28;20037;-73
2022/06/09 08:41:17;;;;;;;5.10;1.23;;;16.90;99.30;;;;;;5035529;28;20033;-73
2022/06/09 08:44:36;;;;;;;6.47;1.45;;;16.90;98.30;;;;;;5035796;28;20042;-73
2022/06/09 08:47:16;;;;;;;5.60;1.50;;;16.60;99.40;;;;;;5039186;28;20052;-73
2022/06/09 08:50:04;;;;;;;7.05;1.23;;;16.60;99.90;;;;;;5035272;28;20037;-73
2022/06/09 08:52:49;;;;;;;7.53;1.13;;;16.70;99.60;;;;;;5035424;28;20041;-73
2022/06/09 08:55:26;;;;;;;8.07;1.73;;;16.70;99.90;;;;;;5039212;28;20406;-73
2022/06/09 08:57:59;;;;;;;5.55;1.30;;;16.50;99.20;;;;;;5050401;28;20037;-73
2022/06/09 09:00:33;;;;;;;7.85;2.13;;;16.50;99.50;;;;;;5035305;28;20036;-73
2022/06/09 09:03:04;;;;;;;4.47;1.42;;;16.60;99.20;;;;;;5042578;28;20037;-73
2022/06/09 09:05:41;;;;;;;4.75;1.30;;;16.80;99.30;;;;;;5045121;28;20037;-73
2022/06/09 09:08:09;;;;;;;7.65;1.63;;;17.10;97.40;;;;;;5043698;28;20049;-73
2022/06/09 09:10:58;;;;;;;9.77;1.67;;;17.40;97.90;;;;;;5050886;28;20034;-73
2022/06/09 09:13:34;;;;;;;6.45;1.25;;;17.40;96.90;;;;;;5045917;28;20045;-73
2022/06/09 09:16:07;;;;;;;4.82;1.48;;;17.60;95.60;;;;;;5037231;28;20479;-73
2022/06/09 09:18:46;;;;;;;4.80;1.38;;;17.80;96.70;;;;;;5035226;28;20029;-72
2022/06/09 09:21:12;;;;;;;6.18;2.08;;;17.60;95.30;;;;;;5051087;28;20037;-73
2022/06/09 09:23:44;;;;;;;6.40;1.48;;;17.20;96.90;;;;;;5034762;28;20044;-72
2022/06/09 09:26:35;;;;;;;5.70;2.05;;;17.30;96.30;;;;;;5034809;28;20481;-71
2022/06/09 09:29:29;;;;;;;4.03;1.38;;;17.70;95.40;;;;;;5034217;28;20486;-71
2022/06/09 09:32:04;;;;;;;7.60;1.45;;;18.10;93.90;;;;;;5034265;28;20025;-72
2022/06/09 09:34:35;;;;;;;5.65;1.83;;;17.20;95.70;;;;;;5034388;28;20479;-71
2022/06/09 09:37:20;;;;;;;4.10;1.10;;;17.00;96.60;;;;;;5034144;28;20038;-72
2022/06/09 09:40:12;;;;;;;5.68;1.17;;;17.20;96.50;;;;;;5033987;28;20037;-72
2022/06/09 09:42:42;;;;;;;8.65;1.50;;;17.70;95.00;;;;;;5043065;28;20037;-72
2022/06/09 09:45:11;;;;;;;7.00;1.30;;;17.40;95.30;;;;;;5034284;28;20509;-72
2022/06/09 09:48:00;;;;;;;3.85;1.30;;;17.40;95.80;;;;;;5039227;28;20129;-71
2022/06/09 09:50:32;;;;;;;6.20;1.10;;;17.50;94.50;;;;;;5037400;28;20048;-74
2022/06/09 09:53:07;;;;;;;4.70;1.23;;;17.90;94.40;;;;;;5053584;28;20041;-74
2022/06/09 09:55:49;;;;;;;4.90;1.58;;;18.10;93.80;;;;;;5034231;28;20029;-74
2022/06/09 09:58:44;;;;;;;5.65;1.23;;;18.10;94.40;;;;;;5041825;28;20045;-73
2022/06/09 10:01:22;;;;;;;4.28;1.08;;;18.40;93.60;;;;;;5042824;28;20045;-73
2022/06/09 10:09:48;;;;;;;3.80;1.08;;;18.50;92.80;;;;;;5033858;28;20029;-72
2022/06/09 10:12:22;;;;;;;3.00;0.90;;;18.20;93.30;;;;;;5033824;28;20060;-72
2022/06/09 10:15:14;;;;;;;7.30;2.35;;;18.40;94.00;;;;;;5033762;28;20048;-73
2022/06/09 10:17:58;;;;;;;3.22;1.23;;;18.60;92.30;;;;;;5033589;28;20067;-73
2022/06/09 10:20:37;;;;;;;5.07;1.30;;;19.10;92.90;;;;;;5033574;28;20049;-73
2022/06/09 10:23:06;;;;;;;5.40;1.40;;;19.30;91.80;;;;;;5041843;28;20029;-73
2022/06/09 10:26:10;;;;;;;7.55;1.25;;;18.80;92.20;;;;;;5033279;28;20497;-73
2022/06/09 10:28:58;;;;;;;4.78;1.17;;;18.70;92.00;;;;;;5033929;28;20036;-72
2022/06/09 10:31:43;;;;;;;6.03;1.38;;;18.00;92.70;;;;;;5043741;28;20045;-73
2022/06/09 10:34:34;;;;;;;4.57;1.23;;;18.00;94.20;;;;;;5045084;28;20044;-73
2022/06/09 10:37:10;;;;;;;6.28;1.58;;;18.20;92.70;;;;;;5050534;28;20520;-74
2022/06/09 10:40:02;;;;;;;3.53;1.60;;;18.10;94.00;;;;;;5033478;28;20033;-73
2022/06/09 10:42:40;;;;;;;3.42;0.80;;;18.60;94.40;;;;;;5032956;28;20148;-73
2022/06/09 10:45:21;;;;;;;7.20;1.77;;;18.70;91.60;;;;;;5033579;28;20033;-73
2022/06/09 10:56:40;;;;;;;6.18;1.52;;;19.30;90.10;;;;;;5033020;28;20041;-73
2022/06/09 10:59:13;;;;;;;6.55;1.67;;;19.20;90.50;;;;;;5031704;28;20049;-73
2022/06/09 11:01:39;;;;;;;6.05;1.38;;;18.90;90.20;;;;;;5031347;28;20049;-75
2022/06/09 11:04:13;;;;;;;3.58;1.20;;;19.00;90.80;;;;;;5047526;28;20042;-73
2022/06/09 11:06:53;;;;;;;3.38;1.20;;;19.50;88.60;;;;;;5045500;28;20033;-73
2022/06/09 11:09:57;;;;;;;3.38;1.02;;;19.30;88.00;;;;;;5037018;28;20040;-73
2022/06/09 11:13:12;;;;;;;4.25;1.30;;;19.10;87.10;;;;;;5035163;28;20057;-73
2022/06/09 11:15:57;;;;;;;5.53;0.98;;;18.90;90.70;;;;;;5032869;28;20509;-73
2022/06/09 11:18:51;;;;;;;5.03;1.13;;;18.90;90.20;;;;;;5036981;28;20029;-74
2022/06/09 11:21:26;;;;;;;4.78;0.98;;;18.90;89.50;;;;;;5035851;28;20041;-74
2022/06/09 11:24:13;;;;;;;4.38;0.82;;;18.60;90.70;;;;;;5032509;28;20040;-72
2022/06/09 11:26:47;;;;;;;3.85;1.30;;;18.80;91.70;;;;;;5032875;28;20033;-72
2022/06/09 11:29:32;;;;;;;3.35;0.77;;;18.70;90.60;;;;;;5032632;28;20029;-72
2022/06/09 11:32:14;;;;;;;2.33;0.85;;;18.90;90.20;;;;;;5032154;28;20722;-72
2022/06/09 11:35:03;;;;;;;3.55;0.90;;;19.30;89.80;;;;;;5040645;28;20073;-73
2022/06/09 11:37:40;;;;;;;3.58;1.02;;;19.50;85.70;;;;;;5040201;28;20029;-72
2022/06/09 11:40:26;;;;;;;5.03;1.00;;;19.50;86.10;;;;;;5032196;28;20048;-72
2022/06/09 11:43:15;;;;;;;6.38;1.33;;;19.70;87.10;;;;;;5042383;28;20033;-72
2022/06/09 11:45:52;;;;;;;6.35;1.20;;;19.60;87.10;;;;;;5043910;28;20490;-72
2022/06/09 11:48:30;;;;;;;3.58;0.50;;;19.50;85.60;;;;;;5032443;28;20034;-73
2022/06/09 11:50:57;;;;;;;4.38;1.05;;;19.60;86.30;;;;;;5031816;28;20025;-72
2022/06/09 11:53:30;;;;;;;5.28;0.85;;;19.60;84.10;;;;;;5032738;28;20037;-72
2022/06/09 11:56:33;;;;;;;3.22;0.90;;;19.50;86.50;;;;;;5034396;28;20459;-73
2022/06/09 11:59:11;;;;;;;3.22;1.20;;;19.90;84.40;;;;;;5042011;28;20041;-72
2022/06/09 12:01:38;;;;;;;8.45;1.33;;;19.90;83.80;;;;;;5033556;28;20394;-73
2022/06/09 12:04:55;;;;;;;3.42;1.25;;;19.70;85.70;;;;;;5031560;28;20045;-73
2022/06/09 12:07:26;;;;;;;5.03;0.90;;;19.70;82.90;;;;;;5029163;28;20045;-74
2022/06/09 12:10:21;;;;;;;3.42;0.88;;;19.50;82.50;;;;;;5031731;28;20041;-74
2022/06/09 12:13:23;;;;;;;2.40;1.00;;;19.40;81.30;;;;;;5030646;28;20049;-72
2022/06/09 12:15:59;;;;;;;1.98;0.82;;;19.40;81.50;;;;;;5031687;28;20029;-72
2022/06/09 12:18:40;;;;;;;4.28;0.80;;;19.20;82.50;;;;;;5043470;28;20052;-72
2022/06/09 12:21:09;;;;;;;;;;;19.20;83.60;;;;;;5034251;28;20036;-72
2022/06/09 12:23:43;;;;;;;7.97;1.95;;;19.30;84.40;;;;;;5031875;28;19909;-72
2022/06/09 12:26:09;;;;;;;3.03;0.80;;;19.40;82.90;;;;;;5031497;28;20045;-73
2022/06/09 12:28:56;;;;;;;4.97;0.90;;;19.40;83.50;;;;;;5031664;28;20029;-73
2022/06/09 12:31:26;;;;;;;4.13;1.15;;;19.80;83.40;;;;;;5035557;28;20466;-72
2022/06/09 12:34:03;;;;;;;4.03;1.08;;;19.90;81.20;;;;;;5036206;28;20040;-72
2022/06/09 12:36:41;;;;;;;6.88;1.23;;;19.80;80.10;;;;;;5031962;28;20029;-74
2022/06/09 12:39:24;;;;;;;5.38;1.35;;;19.60;82.50;;;;;;5032887;28;20029;-72
2022/06/09 12:41:55;;;;;;;6.38;1.00;;;19.60;84.00;;;;;;5038036;28;20038;-74
2022/06/09 12:44:27;;;;;;;3.85;0.93;;;19.60;82.10;;;;;;5032511;28;20030;-72
2022/06/09 12:47:00;;;;;;;3.85;1.08;;;19.50;83.10;;;;;;5032199;28;20037;-73
2022/06/09 12:49:34;;;;;;;7.60;1.55;;;19.70;84.60;;;;;;5051194;28;20052;-73
2022/06/09 12:52:03;;;;;;;3.55;0.98;;;19.70;83.10;;;;;;5035205;28;20029;-73
2022/06/09 12:54:33;;;;;;;4.18;0.90;;;19.60;81.10;;;;;;5036234;28;20036;-73
2022/06/09 12:57:03;;;;;;;4.40;1.33;;;19.50;82.90;;;;;;5050424;28;20051;-73
2022/06/09 12:59:34;;;;;;;5.57;1.02;;;19.60;84.40;;;;;;5040493;28;20030;-73
2022/06/09 13:02:03;;;;;;;2.03;1.00;;;19.80;82.30;;;;;;5047379;28;20580;-73
2022/06/09 13:04:32;;;;;;;4.82;1.10;;;19.80;77.40;;;;;;5044665;28;20025;-74
2022/06/09 13:07:00;;;;;;;2.78;1.00;;;19.80;77.40;;;;;;5034646;28;20033;-73
2022/06/09 13:09:35;;;;;;;6.55;0.95;;;20.00;77.80;;;;;;5033625;28;20485;-74
2022/06/09 13:15:05;;;;;;;3.65;0.90;;;20.70;75.50;;;;;;5033993;28;20042;-73
2022/06/09 13:17:37;;;;;;;6.43;1.52;;;20.80;72.50;;;;;;5034215;28;20049;-73
2022/06/09 13:20:11;;;;;;;3.15;0.90;;;20.80;70.70;;;;;;5034562;28;20096;-74
2022/06/09 13:22:38;;;;;;;5.07;1.00;;;20.80;72.00;;;;;;5035153;28;20056;-73
2022/06/09 13:25:05;;;;;;;4.45;1.45;;;20.60;73.10;;;;;;5040959;28;20056;-75
2022/06/09 13:27:32;;;;;;;4.47;0.80;;;20.60;71.70;;;;;;5035707;28;20033;-73
2022/06/09 13:30:18;;;;;;;3.30;1.30;;;21.00;73.30;;;;;;5034557;28;20066;-74
2022/06/09 13:32:47;;;;;;;5.45;0.85;;;20.90;70.90;;;;;;5034881;28;20033;-75
2022/06/09 13:35:34;;;;;;;10.80;1.52;;;20.90;74.50;;;;;;5033602;28;20042;-73
2022/06/09 13:38:18;;;;;;;3.85;0.70;;;21.30;71.60;;;;;;5034238;28;20032;-74